sensor_id;sensor_type;location;lat;lon;timestamp;P1;durP1;ratioP1;P2;durP2;ratioP2
37451;SDS011;23314;51.114;6.900;2022-11-20T00:01:15;21.83;;;16.93;;
37451;SDS011;23314;51.114;6.900;2022-11-20T00:03:43;21.70;;;17.07;;
37451;SDS011;23314;51.114;6.900;2022-11-20T00:06:09;20.40;;;16.63;;
37451;SDS011;23314;51.114;6.900;2022-11-20T00:08:36;21.83;;;16.57;;
37451;SDS011;23314;51.114;6.900;2022-11-20T00:11:03;26.20;;;18.67;;
37451;SDS011;23314;51.114;6.900;2022-11-20T00:13:29;23.93;;;18.63;;
37451;SDS011;23314;51.114;6.900;2022-11-20T00:15:58;22.70;;;17.23;;
37451;SDS011;23314;51.114;6.900;2022-11-20T00:18:25;20.77;;;17.10;;
37451;SDS011;23314;51.114;6.900;2022-11-20T00:20:50;26.57;;;18.73;;
37451;SDS011;23314;51.114;6.900;2022-11-20T00:23:16;23.80;;;17.93;;
37451;SDS011;23314;51.114;6.900;2022-11-20T00:25:41;24.40;;;18.17;;
37451;SDS011;23314;51.114;6.900;2022-11-20T00:28:06;22.27;;;17.50;;
37451;SDS011;23314;51.114;6.900;2022-11-20T00:30:32;22.97;;;18.00;;
37451;SDS011;23314;51.114;6.900;2022-11-20T00:32:57;26.03;;;19.17;;
37451;SDS011;23314;51.114;6.900;2022-11-20T00:35:23;23.37;;;18.40;;
37451;SDS011;23314;51.114;6.900;2022-11-20T00:37:48;22.93;;;18.33;;
37451;SDS011;23314;51.114;6.900;2022-11-20T00:40:13;22.13;;;17.47;;
37451;SDS011;23314;51.114;6.900;2022-11-20T00:42:39;23.80;;;17.27;;
37451;SDS011;23314;51.114;6.900;2022-11-20T00:45:04;22.90;;;18.50;;
37451;SDS011;23314;51.114;6.900;2022-11-20T00:47:30;22.97;;;17.80;;
37451;SDS011;23314;51.114;6.900;2022-11-20T00:49:55;21.97;;;17.53;;
37451;SDS011;23314;51.114;6.900;2022-11-20T00:52:20;24.07;;;17.90;;
37451;SDS011;23314;51.114;6.900;2022-11-20T00:54:46;22.43;;;17.07;;
37451;SDS011;23314;51.114;6.900;2022-11-20T00:57:11;22.50;;;18.00;;
37451;SDS011;23314;51.114;6.900;2022-11-20T00:59:36;22.23;;;17.60;;
37451;SDS011;23314;51.114;6.900;2022-11-20T01:02:02;24.00;;;18.10;;
37451;SDS011;23314;51.114;6.900;2022-11-20T01:04:27;24.53;;;17.50;;
37451;SDS011;23314;51.114;6.900;2022-11-20T01:06:52;23.30;;;17.17;;
37451;SDS011;23314;51.114;6.900;2022-11-20T01:09:18;22.50;;;16.90;;
37451;SDS011;23314;51.114;6.900;2022-11-20T01:11:43;21.87;;;17.20;;
37451;SDS011;23314;51.114;6.900;2022-11-20T01:14:11;22.13;;;17.53;;
37451;SDS011;23314;51.114;6.900;2022-11-20T01:16:42;26.33;;;17.03;;
37451;SDS011;23314;51.114;6.900;2022-11-20T01:19:13;22.03;;;16.67;;
37451;SDS011;23314;51.114;6.900;2022-11-20T01:21:41;22.77;;;16.67;;
37451;SDS011;23314;51.114;6.900;2022-11-20T01:24:10;20.70;;;16.33;;
37451;SDS011;23314;51.114;6.900;2022-11-20T01:26:37;33.60;;;17.87;;
37451;SDS011;23314;51.114;6.900;2022-11-20T01:29:04;21.20;;;17.23;;
37451;SDS011;23314;51.114;6.900;2022-11-20T01:31:34;22.57;;;16.83;;
37451;SDS011;23314;51.114;6.900;2022-11-20T01:34:03;23.80;;;17.23;;
37451;SDS011;23314;51.114;6.900;2022-11-20T01:36:31;21.83;;;15.97;;
37451;SDS011;23314;51.114;6.900;2022-11-20T01:38:58;21.97;;;17.43;;
37451;SDS011;23314;51.114;6.900;2022-11-20T01:41:26;22.07;;;17.50;;
37451;SDS011;23314;51.114;6.900;2022-11-20T01:44:13;20.37;;;16.17;;
37451;SDS011;23314;51.114;6.900;2022-11-20T01:47:00;21.20;;;16.57;;
37451;SDS011;23314;51.114;6.900;2022-11-20T01:49:39;21.60;;;16.57;;
37451;SDS011;23314;51.114;6.900;2022-11-20T01:52:13;21.77;;;16.47;;
37451;SDS011;23314;51.114;6.900;2022-11-20T01:54:46;23.27;;;16.10;;
37451;SDS011;23314;51.114;6.900;2022-11-20T01:57:15;20.57;;;16.93;;
37451;SDS011;23314;51.114;6.900;2022-11-20T01:59:45;22.07;;;16.77;;
37451;SDS011;23314;51.114;6.900;2022-11-20T02:02:15;20.50;;;16.97;;
37451;SDS011;23314;51.114;6.900;2022-11-20T02:04:41;21.87;;;16.60;;
37451;SDS011;23314;51.114;6.900;2022-11-20T02:07:06;26.00;;;17.30;;
37451;SDS011;23314;51.114;6.900;2022-11-20T02:09:32;21.33;;;17.07;;
37451;SDS011;23314;51.114;6.900;2022-11-20T02:11:57;22.57;;;16.37;;
37451;SDS011;23314;51.114;6.900;2022-11-20T02:14:23;21.83;;;16.93;;
37451;SDS011;23314;51.114;6.900;2022-11-20T02:16:50;21.70;;;16.50;;
37451;SDS011;23314;51.114;6.900;2022-11-20T02:19:23;21.10;;;16.70;;
37451;SDS011;23314;51.114;6.900;2022-11-20T02:24:22;20.80;;;15.60;;
37451;SDS011;23314;51.114;6.900;2022-11-20T02:32:23;20.50;;;15.93;;
37451;SDS011;23314;51.114;6.900;2022-11-20T02:34:50;21.77;;;16.70;;
37451;SDS011;23314;51.114;6.900;2022-11-20T02:37:15;21.77;;;17.17;;
37451;SDS011;23314;51.114;6.900;2022-11-20T02:39:40;20.73;;;16.77;;
37451;SDS011;23314;51.114;6.900;2022-11-20T02:45:47;22.47;;;17.77;;
37451;SDS011;23314;51.114;6.900;2022-11-20T02:48:12;20.77;;;16.53;;
37451;SDS011;23314;51.114;6.900;2022-11-20T02:50:38;20.00;;;16.33;;
37451;SDS011;23314;51.114;6.900;2022-11-20T02:53:04;21.50;;;16.47;;
37451;SDS011;23314;51.114;6.900;2022-11-20T02:55:30;23.83;;;17.53;;
37451;SDS011;23314;51.114;6.900;2022-11-20T02:57:55;19.93;;;16.23;;
37451;SDS011;23314;51.114;6.900;2022-11-20T03:00:20;22.07;;;16.63;;
37451;SDS011;23314;51.114;6.900;2022-11-20T03:02:46;21.77;;;15.77;;
37451;SDS011;23314;51.114;6.900;2022-11-20T03:05:11;21.10;;;16.63;;
37451;SDS011;23314;51.114;6.900;2022-11-20T03:07:36;22.40;;;17.23;;
37451;SDS011;23314;51.114;6.900;2022-11-20T03:10:02;21.10;;;16.57;;
37451;SDS011;23314;51.114;6.900;2022-11-20T03:12:28;21.30;;;16.67;;
37451;SDS011;23314;51.114;6.900;2022-11-20T03:14:53;27.57;;;17.67;;
37451;SDS011;23314;51.114;6.900;2022-11-20T03:17:19;23.77;;;16.57;;
37451;SDS011;23314;51.114;6.900;2022-11-20T03:19:44;22.17;;;17.17;;
37451;SDS011;23314;51.114;6.900;2022-11-20T03:22:09;25.50;;;18.07;;
37451;SDS011;23314;51.114;6.900;2022-11-20T03:24:35;24.93;;;17.53;;
37451;SDS011;23314;51.114;6.900;2022-11-20T03:27:00;19.73;;;15.63;;
37451;SDS011;23314;51.114;6.900;2022-11-20T03:29:25;21.87;;;16.10;;
37451;SDS011;23314;51.114;6.900;2022-11-20T03:31:51;24.87;;;17.60;;
37451;SDS011;23314;51.114;6.900;2022-11-20T03:34:16;21.37;;;16.10;;
37451;SDS011;23314;51.114;6.900;2022-11-20T03:36:43;22.20;;;16.87;;
37451;SDS011;23314;51.114;6.900;2022-11-20T03:39:08;21.70;;;16.67;;
37451;SDS011;23314;51.114;6.900;2022-11-20T03:41:38;21.37;;;16.70;;
37451;SDS011;23314;51.114;6.900;2022-11-20T03:44:05;21.50;;;16.70;;
37451;SDS011;23314;51.114;6.900;2022-11-20T03:46:33;23.33;;;17.03;;
37451;SDS011;23314;51.114;6.900;2022-11-20T03:48:58;23.73;;;16.87;;
37451;SDS011;23314;51.114;6.900;2022-11-20T03:51:25;22.10;;;16.43;;
37451;SDS011;23314;51.114;6.900;2022-11-20T03:53:52;20.93;;;16.70;;
37451;SDS011;23314;51.114;6.900;2022-11-20T03:56:20;22.40;;;18.07;;
37451;SDS011;23314;51.114;6.900;2022-11-20T03:58:48;21.90;;;16.33;;
37451;SDS011;23314;51.114;6.900;2022-11-20T04:01:21;23.17;;;15.93;;
37451;SDS011;23314;51.114;6.900;2022-11-20T04:03:47;22.67;;;16.57;;
37451;SDS011;23314;51.114;6.900;2022-11-20T04:06:17;21.77;;;17.40;;
37451;SDS011;23314;51.114;6.900;2022-11-20T04:08:44;20.97;;;15.90;;
37451;SDS011;23314;51.114;6.900;2022-11-20T04:11:14;21.03;;;16.33;;
37451;SDS011;23314;51.114;6.900;2022-11-20T04:13:40;22.17;;;16.77;;
37451;SDS011;23314;51.114;6.900;2022-11-20T04:16:06;24.07;;;17.47;;
37451;SDS011;23314;51.114;6.900;2022-11-20T04:18:33;21.70;;;16.83;;
37451;SDS011;23314;51.114;6.900;2022-11-20T04:20:59;19.30;;;16.07;;
37451;SDS011;23314;51.114;6.900;2022-11-20T04:23:25;21.83;;;16.10;;
37451;SDS011;23314;51.114;6.900;2022-11-20T04:25:50;21.33;;;16.23;;
37451;SDS011;23314;51.114;6.900;2022-11-20T04:28:15;22.30;;;16.73;;
37451;SDS011;23314;51.114;6.900;2022-11-20T04:30:41;20.40;;;16.37;;
37451;SDS011;23314;51.114;6.900;2022-11-20T04:33:07;23.73;;;16.97;;
37451;SDS011;23314;51.114;6.900;2022-11-20T04:35:35;20.27;;;15.87;;
37451;SDS011;23314;51.114;6.900;2022-11-20T04:38:01;22.53;;;16.87;;
37451;SDS011;23314;51.114;6.900;2022-11-20T04:40:27;20.17;;;16.13;;
37451;SDS011;23314;51.114;6.900;2022-11-20T04:42:52;21.90;;;16.83;;
37451;SDS011;23314;51.114;6.900;2022-11-20T04:45:18;21.03;;;16.77;;
37451;SDS011;23314;51.114;6.900;2022-11-20T04:47:44;20.60;;;16.57;;
37451;SDS011;23314;51.114;6.900;2022-11-20T04:50:09;20.20;;;15.90;;
37451;SDS011;23314;51.114;6.900;2022-11-20T04:52:35;21.17;;;15.87;;
37451;SDS011;23314;51.114;6.900;2022-11-20T04:55:00;20.90;;;16.67;;
37451;SDS011;23314;51.114;6.900;2022-11-20T04:57:25;22.00;;;16.43;;
37451;SDS011;23314;51.114;6.900;2022-11-20T04:59:51;19.93;;;15.80;;
37451;SDS011;23314;51.114;6.900;2022-11-20T05:02:16;22.00;;;17.13;;
37451;SDS011;23314;51.114;6.900;2022-11-20T05:04:41;22.57;;;17.43;;
37451;SDS011;23314;51.114;6.900;2022-11-20T05:07:07;21.13;;;17.27;;
37451;SDS011;23314;51.114;6.900;2022-11-20T05:09:32;22.23;;;17.37;;
37451;SDS011;23314;51.114;6.900;2022-11-20T05:11:57;22.87;;;17.00;;
37451;SDS011;23314;51.114;6.900;2022-11-20T05:14:22;21.67;;;16.73;;
37451;SDS011;23314;51.114;6.900;2022-11-20T05:16:48;20.03;;;16.67;;
37451;SDS011;23314;51.114;6.900;2022-11-20T05:19:13;20.73;;;17.13;;
37451;SDS011;23314;51.114;6.900;2022-11-20T05:21:38;22.77;;;16.63;;
37451;SDS011;23314;51.114;6.900;2022-11-20T05:24:04;22.20;;;16.77;;
37451;SDS011;23314;51.114;6.900;2022-11-20T05:26:30;23.47;;;17.83;;
37451;SDS011;23314;51.114;6.900;2022-11-20T05:28:56;23.60;;;18.07;;
37451;SDS011;23314;51.114;6.900;2022-11-20T05:31:22;22.93;;;17.63;;
37451;SDS011;23314;51.114;6.900;2022-11-20T05:33:49;25.33;;;17.70;;
37451;SDS011;23314;51.114;6.900;2022-11-20T05:36:14;24.60;;;18.17;;
37451;SDS011;23314;51.114;6.900;2022-11-20T05:38:40;23.90;;;18.23;;
37451;SDS011;23314;51.114;6.900;2022-11-20T05:41:07;23.53;;;17.97;;
37451;SDS011;23314;51.114;6.900;2022-11-20T05:43:37;22.93;;;18.27;;
37451;SDS011;23314;51.114;6.900;2022-11-20T05:46:04;22.87;;;17.97;;
37451;SDS011;23314;51.114;6.900;2022-11-20T05:48:30;24.77;;;18.77;;
37451;SDS011;23314;51.114;6.900;2022-11-20T05:50:57;25.23;;;19.00;;
37451;SDS011;23314;51.114;6.900;2022-11-20T05:53:23;27.53;;;19.73;;
37451;SDS011;23314;51.114;6.900;2022-11-20T05:55:56;26.63;;;19.60;;
37451;SDS011;23314;51.114;6.900;2022-11-20T05:58:25;27.30;;;19.77;;
37451;SDS011;23314;51.114;6.900;2022-11-20T06:00:51;23.10;;;18.60;;
37451;SDS011;23314;51.114;6.900;2022-11-20T06:03:16;25.93;;;19.60;;
37451;SDS011;23314;51.114;6.900;2022-11-20T06:05:42;26.37;;;19.93;;
37451;SDS011;23314;51.114;6.900;2022-11-20T06:08:07;27.57;;;18.93;;
37451;SDS011;23314;51.114;6.900;2022-11-20T06:10:32;24.03;;;17.70;;
37451;SDS011;23314;51.114;6.900;2022-11-20T06:12:58;24.10;;;18.87;;
37451;SDS011;23314;51.114;6.900;2022-11-20T06:15:23;26.60;;;19.57;;
37451;SDS011;23314;51.114;6.900;2022-11-20T06:17:51;26.47;;;19.27;;
37451;SDS011;23314;51.114;6.900;2022-11-20T06:20:17;27.57;;;18.90;;
37451;SDS011;23314;51.114;6.900;2022-11-20T06:22:43;26.50;;;19.43;;
37451;SDS011;23314;51.114;6.900;2022-11-20T06:25:08;29.10;;;20.50;;
37451;SDS011;23314;51.114;6.900;2022-11-20T06:27:33;28.17;;;21.17;;
37451;SDS011;23314;51.114;6.900;2022-11-20T06:29:59;28.70;;;20.87;;
37451;SDS011;23314;51.114;6.900;2022-11-20T06:32:24;26.80;;;19.77;;
37451;SDS011;23314;51.114;6.900;2022-11-20T06:34:49;26.53;;;19.90;;
37451;SDS011;23314;51.114;6.900;2022-11-20T06:37:15;30.30;;;20.47;;
37451;SDS011;23314;51.114;6.900;2022-11-20T06:39:40;27.60;;;19.63;;
37451;SDS011;23314;51.114;6.900;2022-11-20T06:42:05;30.73;;;20.47;;
37451;SDS011;23314;51.114;6.900;2022-11-20T06:44:31;27.93;;;19.87;;
37451;SDS011;23314;51.114;6.900;2022-11-20T06:46:56;29.20;;;20.13;;
37451;SDS011;23314;51.114;6.900;2022-11-20T06:49:21;28.47;;;19.63;;
37451;SDS011;23314;51.114;6.900;2022-11-20T06:51:47;29.90;;;20.97;;
37451;SDS011;23314;51.114;6.900;2022-11-20T06:54:12;31.17;;;20.33;;
37451;SDS011;23314;51.114;6.900;2022-11-20T06:56:37;30.37;;;20.20;;
37451;SDS011;23314;51.114;6.900;2022-11-20T06:59:03;32.60;;;20.60;;
37451;SDS011;23314;51.114;6.900;2022-11-20T07:01:30;36.30;;;21.57;;
37451;SDS011;23314;51.114;6.900;2022-11-20T07:03:56;32.67;;;20.90;;
37451;SDS011;23314;51.114;6.900;2022-11-20T07:06:21;31.30;;;20.50;;
37451;SDS011;23314;51.114;6.900;2022-11-20T07:08:46;34.83;;;21.77;;
37451;SDS011;23314;51.114;6.900;2022-11-20T07:11:12;37.40;;;22.33;;
37451;SDS011;23314;51.114;6.900;2022-11-20T07:13:37;35.10;;;21.70;;
37451;SDS011;23314;51.114;6.900;2022-11-20T07:16:04;38.67;;;22.23;;
37451;SDS011;23314;51.114;6.900;2022-11-20T07:18:31;39.23;;;22.77;;
37451;SDS011;23314;51.114;6.900;2022-11-20T07:21:01;36.10;;;22.93;;
37451;SDS011;23314;51.114;6.900;2022-11-20T07:23:27;37.80;;;23.23;;
37451;SDS011;23314;51.114;6.900;2022-11-20T07:25:52;37.30;;;22.90;;
37451;SDS011;23314;51.114;6.900;2022-11-20T07:28:18;34.83;;;22.47;;
37451;SDS011;23314;51.114;6.900;2022-11-20T07:30:48;39.87;;;24.07;;
37451;SDS011;23314;51.114;6.900;2022-11-20T07:33:15;35.23;;;22.87;;
37451;SDS011;23314;51.114;6.900;2022-11-20T07:35:40;37.93;;;23.73;;
37451;SDS011;23314;51.114;6.900;2022-11-20T07:38:05;34.67;;;23.00;;
37451;SDS011;23314;51.114;6.900;2022-11-20T07:40:30;34.00;;;23.37;;
37451;SDS011;23314;51.114;6.900;2022-11-20T07:42:56;35.27;;;24.10;;
37451;SDS011;23314;51.114;6.900;2022-11-20T07:45:22;31.37;;;21.97;;
37451;SDS011;23314;51.114;6.900;2022-11-20T07:47:48;29.67;;;21.63;;
37451;SDS011;23314;51.114;6.900;2022-11-20T07:50:15;32.30;;;21.80;;
37451;SDS011;23314;51.114;6.900;2022-11-20T07:52:41;28.43;;;19.47;;
37451;SDS011;23314;51.114;6.900;2022-11-20T07:55:06;29.23;;;20.77;;
37451;SDS011;23314;51.114;6.900;2022-11-20T07:57:32;27.63;;;19.50;;
37451;SDS011;23314;51.114;6.900;2022-11-20T07:59:57;28.87;;;20.50;;
37451;SDS011;23314;51.114;6.900;2022-11-20T08:02:23;25.40;;;18.33;;
37451;SDS011;23314;51.114;6.900;2022-11-20T08:04:48;27.97;;;19.93;;
37451;SDS011;23314;51.114;6.900;2022-11-20T08:07:14;25.07;;;19.03;;
37451;SDS011;23314;51.114;6.900;2022-11-20T08:09:39;27.47;;;19.93;;
37451;SDS011;23314;51.114;6.900;2022-11-20T08:12:04;27.77;;;19.07;;
37451;SDS011;23314;51.114;6.900;2022-11-20T08:14:48;25.57;;;19.17;;
37451;SDS011;23314;51.114;6.900;2022-11-20T08:17:14;23.70;;;18.43;;
37451;SDS011;23314;51.114;6.900;2022-11-20T08:19:39;26.00;;;18.60;;
37451;SDS011;23314;51.114;6.900;2022-11-20T08:22:04;24.83;;;17.97;;
37451;SDS011;23314;51.114;6.900;2022-11-20T08:24:30;26.33;;;18.17;;
37451;SDS011;23314;51.114;6.900;2022-11-20T08:26:57;24.93;;;18.20;;
37451;SDS011;23314;51.114;6.900;2022-11-20T08:29:24;28.37;;;18.93;;
37451;SDS011;23314;51.114;6.900;2022-11-20T08:31:49;24.80;;;18.33;;
37451;SDS011;23314;51.114;6.900;2022-11-20T08:34:14;20.70;;;17.33;;
37451;SDS011;23314;51.114;6.900;2022-11-20T08:36:40;24.30;;;18.30;;
37451;SDS011;23314;51.114;6.900;2022-11-20T08:39:05;22.87;;;17.37;;
37451;SDS011;23314;51.114;6.900;2022-11-20T08:41:30;23.03;;;18.53;;
37451;SDS011;23314;51.114;6.900;2022-11-20T08:44:05;23.50;;;18.47;;
37451;SDS011;23314;51.114;6.900;2022-11-20T08:46:49;24.13;;;17.93;;
37451;SDS011;23314;51.114;6.900;2022-11-20T08:49:15;22.00;;;16.70;;
37451;SDS011;23314;51.114;6.900;2022-11-20T08:51:41;23.90;;;17.67;;
37451;SDS011;23314;51.114;6.900;2022-11-20T08:54:07;24.47;;;18.73;;
37451;SDS011;23314;51.114;6.900;2022-11-20T08:56:33;23.50;;;18.37;;
37451;SDS011;23314;51.114;6.900;2022-11-20T08:58:59;23.00;;;18.83;;
37451;SDS011;23314;51.114;6.900;2022-11-20T09:01:25;22.00;;;17.97;;
37451;SDS011;23314;51.114;6.900;2022-11-20T09:03:51;26.00;;;19.33;;
37451;SDS011;23314;51.114;6.900;2022-11-20T09:06:17;26.47;;;17.80;;
37451;SDS011;23314;51.114;6.900;2022-11-20T09:08:43;25.30;;;19.37;;
37451;SDS011;23314;51.114;6.900;2022-11-20T09:11:08;25.13;;;18.00;;
37451;SDS011;23314;51.114;6.900;2022-11-20T09:13:34;22.63;;;18.20;;
37451;SDS011;23314;51.114;6.900;2022-11-20T09:16:05;24.27;;;18.97;;
37451;SDS011;23314;51.114;6.900;2022-11-20T09:18:32;25.63;;;18.47;;
37451;SDS011;23314;51.114;6.900;2022-11-20T09:20:59;24.93;;;18.90;;
37451;SDS011;23314;51.114;6.900;2022-11-20T09:23:25;21.67;;;17.93;;
37451;SDS011;23314;51.114;6.900;2022-11-20T09:25:51;25.17;;;18.77;;
37451;SDS011;23314;51.114;6.900;2022-11-20T09:28:17;23.27;;;18.67;;
37451;SDS011;23314;51.114;6.900;2022-11-20T09:30:43;25.27;;;19.33;;
37451;SDS011;23314;51.114;6.900;2022-11-20T09:33:09;24.00;;;18.57;;
37451;SDS011;23314;51.114;6.900;2022-11-20T09:35:34;26.13;;;19.70;;
37451;SDS011;23314;51.114;6.900;2022-11-20T09:38:04;23.80;;;18.90;;
37451;SDS011;23314;51.114;6.900;2022-11-20T09:40:30;23.10;;;17.57;;
37451;SDS011;23314;51.114;6.900;2022-11-20T09:42:57;24.67;;;18.83;;
37451;SDS011;23314;51.114;6.900;2022-11-20T09:48:42;25.13;;;18.63;;
37451;SDS011;23314;51.114;6.900;2022-11-20T09:54:15;19.13;;;15.77;;
37451;SDS011;23314;51.114;6.900;2022-11-20T09:56:44;20.57;;;15.80;;
37451;SDS011;23314;51.114;6.900;2022-11-20T10:02:00;23.77;;;17.33;;
37451;SDS011;23314;51.114;6.900;2022-11-20T10:04:31;21.43;;;16.60;;
37451;SDS011;23314;51.114;6.900;2022-11-20T10:07:03;20.57;;;16.73;;
37451;SDS011;23314;51.114;6.900;2022-11-20T10:09:38;22.00;;;16.83;;
37451;SDS011;23314;51.114;6.900;2022-11-20T10:20:12;23.93;;;18.37;;
37451;SDS011;23314;51.114;6.900;2022-11-20T10:25:22;22.13;;;17.60;;
37451;SDS011;23314;51.114;6.900;2022-11-20T10:28:16;22.97;;;18.60;;
37451;SDS011;23314;51.114;6.900;2022-11-20T10:31:07;27.13;;;19.07;;
37451;SDS011;23314;51.114;6.900;2022-11-20T10:33:36;24.87;;;19.07;;
37451;SDS011;23314;51.114;6.900;2022-11-20T10:38:59;24.83;;;17.60;;
37451;SDS011;23314;51.114;6.900;2022-11-20T10:41:30;25.63;;;19.03;;
37451;SDS011;23314;51.114;6.900;2022-11-20T10:44:14;23.37;;;18.70;;
37451;SDS011;23314;51.114;6.900;2022-11-20T10:47:01;27.17;;;18.97;;
37451;SDS011;23314;51.114;6.900;2022-11-20T10:49:27;26.73;;;18.83;;
37451;SDS011;23314;51.114;6.900;2022-11-20T10:52:03;25.10;;;18.50;;
37451;SDS011;23314;51.114;6.900;2022-11-20T10:57:35;23.97;;;19.00;;
37451;SDS011;23314;51.114;6.900;2022-11-20T11:00:13;22.53;;;18.03;;
37451;SDS011;23314;51.114;6.900;2022-11-20T11:02:46;23.40;;;17.70;;
37451;SDS011;23314;51.114;6.900;2022-11-20T11:07:50;22.33;;;17.53;;
37451;SDS011;23314;51.114;6.900;2022-11-20T11:10:22;23.70;;;17.77;;
37451;SDS011;23314;51.114;6.900;2022-11-20T11:12:55;21.20;;;16.80;;
37451;SDS011;23314;51.114;6.900;2022-11-20T11:15:35;24.00;;;17.60;;
37451;SDS011;23314;51.114;6.900;2022-11-20T11:18:03;27.20;;;18.30;;
37451;SDS011;23314;51.114;6.900;2022-11-20T11:20:29;24.27;;;18.70;;
37451;SDS011;23314;51.114;6.900;2022-11-20T11:22:55;21.53;;;17.40;;
37451;SDS011;23314;51.114;6.900;2022-11-20T11:25:32;26.03;;;18.90;;
37451;SDS011;23314;51.114;6.900;2022-11-20T11:28:00;24.03;;;18.57;;
37451;SDS011;23314;51.114;6.900;2022-11-20T11:30:30;24.23;;;18.17;;
37451;SDS011;23314;51.114;6.900;2022-11-20T11:33:11;26.67;;;19.30;;
37451;SDS011;23314;51.114;6.900;2022-11-20T11:35:47;29.23;;;20.47;;
37451;SDS011;23314;51.114;6.900;2022-11-20T11:38:15;25.27;;;18.17;;
37451;SDS011;23314;51.114;6.900;2022-11-20T11:40:44;23.67;;;18.60;;
37451;SDS011;23314;51.114;6.900;2022-11-20T11:43:17;26.73;;;19.57;;
37451;SDS011;23314;51.114;6.900;2022-11-20T11:48:56;26.87;;;20.27;;
37451;SDS011;23314;51.114;6.900;2022-11-20T11:54:23;26.97;;;20.57;;
37451;SDS011;23314;51.114;6.900;2022-11-20T11:56:51;30.97;;;20.93;;
37451;SDS011;23314;51.114;6.900;2022-11-20T11:59:22;26.53;;;20.27;;
37451;SDS011;23314;51.114;6.900;2022-11-20T12:01:57;26.33;;;20.47;;
37451;SDS011;23314;51.114;6.900;2022-11-20T12:10:04;28.07;;;20.50;;
37451;SDS011;23314;51.114;6.900;2022-11-20T12:13:03;27.77;;;20.10;;
37451;SDS011;23314;51.114;6.900;2022-11-20T12:15:51;25.93;;;19.97;;
37451;SDS011;23314;51.114;6.900;2022-11-20T12:18:18;30.03;;;20.17;;
37451;SDS011;23314;51.114;6.900;2022-11-20T12:20:48;26.33;;;20.40;;
37451;SDS011;23314;51.114;6.900;2022-11-20T12:23:21;27.53;;;20.33;;
37451;SDS011;23314;51.114;6.900;2022-11-20T12:25:58;28.97;;;21.63;;
37451;SDS011;23314;51.114;6.900;2022-11-20T12:34:09;27.00;;;21.10;;
37451;SDS011;23314;51.114;6.900;2022-11-20T12:36:46;24.73;;;19.87;;
37451;SDS011;23314;51.114;6.900;2022-11-20T12:42:12;30.83;;;21.80;;
37451;SDS011;23314;51.114;6.900;2022-11-20T12:50:28;32.77;;;21.00;;
37451;SDS011;23314;51.114;6.900;2022-11-20T12:53:05;28.83;;;21.33;;
37451;SDS011;23314;51.114;6.900;2022-11-20T12:55:54;27.43;;;21.40;;
37451;SDS011;23314;51.114;6.900;2022-11-20T13:07:04;26.73;;;19.83;;
37451;SDS011;23314;51.114;6.900;2022-11-20T13:09:33;26.90;;;19.83;;
37451;SDS011;23314;51.114;6.900;2022-11-20T13:17:57;31.00;;;21.50;;
37451;SDS011;23314;51.114;6.900;2022-11-20T13:20:24;26.50;;;20.00;;
37451;SDS011;23314;51.114;6.900;2022-11-20T13:22:51;26.57;;;20.53;;
37451;SDS011;23314;51.114;6.900;2022-11-20T13:25:31;28.43;;;20.57;;
37451;SDS011;23314;51.114;6.900;2022-11-20T13:30:36;28.00;;;20.60;;
37451;SDS011;23314;51.114;6.900;2022-11-20T13:33:32;28.67;;;21.33;;
37451;SDS011;23314;51.114;6.900;2022-11-20T13:36:00;29.23;;;20.63;;
37451;SDS011;23314;51.114;6.900;2022-11-20T13:38:26;29.17;;;20.53;;
37451;SDS011;23314;51.114;6.900;2022-11-20T13:40:54;28.97;;;20.40;;
37451;SDS011;23314;51.114;6.900;2022-11-20T13:43:22;30.53;;;21.27;;
37451;SDS011;23314;51.114;6.900;2022-11-20T13:46:10;29.00;;;20.63;;
37451;SDS011;23314;51.114;6.900;2022-11-20T13:48:45;25.53;;;19.23;;
37451;SDS011;23314;51.114;6.900;2022-11-20T14:02:15;30.17;;;18.57;;
37451;SDS011;23314;51.114;6.900;2022-11-20T14:04:43;25.13;;;18.20;;
37451;SDS011;23314;51.114;6.900;2022-11-20T14:07:11;27.23;;;19.50;;
37451;SDS011;23314;51.114;6.900;2022-11-20T14:09:37;24.40;;;18.33;;
37451;SDS011;23314;51.114;6.900;2022-11-20T14:12:03;25.10;;;18.80;;
37451;SDS011;23314;51.114;6.900;2022-11-20T14:14:46;25.20;;;19.27;;
37451;SDS011;23314;51.114;6.900;2022-11-20T14:17:32;24.47;;;18.30;;
37451;SDS011;23314;51.114;6.900;2022-11-20T14:20:01;24.33;;;19.07;;
37451;SDS011;23314;51.114;6.900;2022-11-20T14:22:31;25.17;;;18.73;;
37451;SDS011;23314;51.114;6.900;2022-11-20T14:27:37;24.37;;;17.97;;
37451;SDS011;23314;51.114;6.900;2022-11-20T14:30:05;24.70;;;18.70;;
37451;SDS011;23314;51.114;6.900;2022-11-20T14:32:38;23.33;;;18.03;;
37451;SDS011;23314;51.114;6.900;2022-11-20T14:35:07;25.93;;;18.83;;
37451;SDS011;23314;51.114;6.900;2022-11-20T14:37:36;25.67;;;19.50;;
37451;SDS011;23314;51.114;6.900;2022-11-20T14:40:04;22.07;;;17.70;;
37451;SDS011;23314;51.114;6.900;2022-11-20T14:42:46;23.80;;;17.13;;
37451;SDS011;23314;51.114;6.900;2022-11-20T14:45:11;22.80;;;17.97;;
37451;SDS011;23314;51.114;6.900;2022-11-20T14:47:37;23.57;;;18.33;;
37451;SDS011;23314;51.114;6.900;2022-11-20T14:50:02;23.83;;;18.23;;
37451;SDS011;23314;51.114;6.900;2022-11-20T14:52:28;25.97;;;18.37;;
37451;SDS011;23314;51.114;6.900;2022-11-20T14:54:56;26.87;;;18.23;;
37451;SDS011;23314;51.114;6.900;2022-11-20T15:00:07;26.20;;;18.13;;
37451;SDS011;23314;51.114;6.900;2022-11-20T15:02:39;24.60;;;18.23;;
37451;SDS011;23314;51.114;6.900;2022-11-20T15:05:06;24.53;;;18.10;;
37451;SDS011;23314;51.114;6.900;2022-11-20T15:07:33;24.90;;;17.80;;
37451;SDS011;23314;51.114;6.900;2022-11-20T15:10:01;24.77;;;17.47;;
37451;SDS011;23314;51.114;6.900;2022-11-20T15:12:31;23.10;;;17.40;;
37451;SDS011;23314;51.114;6.900;2022-11-20T15:14:59;25.27;;;17.80;;
37451;SDS011;23314;51.114;6.900;2022-11-20T15:17:25;23.50;;;17.13;;
37451;SDS011;23314;51.114;6.900;2022-11-20T15:19:51;22.50;;;16.73;;
37451;SDS011;23314;51.114;6.900;2022-11-20T15:22:18;21.63;;;16.43;;
37451;SDS011;23314;51.114;6.900;2022-11-20T15:24:43;22.40;;;16.87;;
37451;SDS011;23314;51.114;6.900;2022-11-20T15:27:09;23.67;;;17.20;;
37451;SDS011;23314;51.114;6.900;2022-11-20T15:29:35;22.87;;;17.33;;
37451;SDS011;23314;51.114;6.900;2022-11-20T15:32:00;26.10;;;18.00;;
37451;SDS011;23314;51.114;6.900;2022-11-20T15:34:26;25.20;;;18.30;;
37451;SDS011;23314;51.114;6.900;2022-11-20T15:36:52;31.57;;;19.13;;
37451;SDS011;23314;51.114;6.900;2022-11-20T15:39:18;25.97;;;18.57;;
37451;SDS011;23314;51.114;6.900;2022-11-20T15:41:43;26.87;;;19.27;;
37451;SDS011;23314;51.114;6.900;2022-11-20T15:44:09;28.27;;;18.23;;
37451;SDS011;23314;51.114;6.900;2022-11-20T15:46:38;26.57;;;18.47;;
37451;SDS011;23314;51.114;6.900;2022-11-20T15:49:10;28.73;;;20.20;;
37451;SDS011;23314;51.114;6.900;2022-11-20T15:51:38;28.90;;;20.97;;
37451;SDS011;23314;51.114;6.900;2022-11-20T15:54:13;30.67;;;20.27;;
37451;SDS011;23314;51.114;6.900;2022-11-20T15:56:40;28.37;;;20.50;;
37451;SDS011;23314;51.114;6.900;2022-11-20T15:59:06;31.53;;;21.47;;
37451;SDS011;23314;51.114;6.900;2022-11-20T16:01:31;31.10;;;21.67;;
37451;SDS011;23314;51.114;6.900;2022-11-20T16:03:57;31.80;;;22.40;;
37451;SDS011;23314;51.114;6.900;2022-11-20T16:06:22;31.20;;;20.90;;